createdAt,value
2018-02-08T00:01:48.940Z,35.08
2018-02-08T00:04:16.928Z,28.90
2018-02-08T00:06:44.969Z,30.45
2018-02-08T00:09:13.383Z,33.03
2018-02-08T00:11:41.739Z,38.30
2018-02-08T00:14:09.827Z,29.85
2018-02-08T00:16:38.055Z,35.20
2018-02-08T00:19:10.088Z,36.10
2018-02-08T00:21:38.111Z,34.30
2018-02-08T00:24:06.126Z,34.08
2018-02-08T00:26:34.136Z,34.20
2018-02-08T00:29:02.174Z,37.42
2018-02-08T00:31:30.240Z,28.77
2018-02-08T00:33:58.258Z,34.67
2018-02-08T00:36:26.248Z,32.58
2018-02-08T00:38:54.252Z,32.58
2018-02-08T00:41:22.280Z,29.58
2018-02-08T00:43:50.359Z,32.70
2018-02-08T00:46:18.543Z,28.55
2018-02-08T00:48:46.572Z,33.58
2018-02-08T00:51:14.657Z,28.25
2018-02-08T00:53:42.776Z,32.97
2018-02-08T00:56:10.809Z,31.95
2018-02-08T00:58:38.797Z,32.08
2018-02-08T01:01:06.835Z,33.25
2018-02-08T01:03:34.830Z,35.45
2018-02-08T01:06:02.880Z,29.50
2018-02-08T01:08:30.884Z,34.15
2018-02-08T01:10:58.901Z,31.23
2018-02-08T01:13:27.016Z,30.17
2018-02-08T01:15:55.052Z,40.10
2018-02-08T01:18:23.162Z,30.98
2018-02-08T01:20:51.235Z,36.58
2018-02-08T01:23:19.267Z,31.70
2018-02-08T01:25:47.370Z,30.67
2018-02-08T01:28:15.473Z,32.67
2018-02-08T01:30:43.447Z,31.35
2018-02-08T01:33:11.489Z,34.90
2018-02-08T01:35:39.456Z,35.63
2018-02-08T01:38:07.414Z,34.30
2018-02-08T01:40:35.353Z,33.60
2018-02-08T01:43:03.523Z,33.03
2018-02-08T01:45:31.532Z,32.85
2018-02-08T01:48:00.448Z,34.30
2018-02-08T01:50:28.383Z,35.90
2018-02-08T01:52:57.226Z,31.60
2018-02-08T01:55:25.154Z,34.88
2018-02-08T01:57:53.144Z,34.22
2018-02-08T02:00:21.114Z,34.72
2018-02-08T02:02:49.157Z,28.73
2018-02-08T02:05:17.191Z,32.33
2018-02-08T02:07:45.495Z,29.70
2018-02-08T02:10:13.466Z,29.58
2018-02-08T02:12:41.956Z,33.67
2018-02-08T02:15:09.954Z,32.92
2018-02-08T02:17:37.869Z,35.25
2018-02-08T02:20:05.890Z,30.62
2018-02-08T02:22:34.419Z,31.50
2018-02-08T02:25:02.406Z,35.67
2018-02-08T02:27:30.345Z,30.77
2018-02-08T02:29:58.319Z,30.62
2018-02-08T02:32:26.247Z,29.45
2018-02-08T02:34:54.223Z,33.80
2018-02-08T02:37:22.190Z,33.65
2018-02-08T02:39:50.163Z,32.90
2018-02-08T02:42:18.125Z,32.38
2018-02-08T02:44:46.093Z,32.60
2018-02-08T02:47:14.085Z,31.05
2018-02-08T02:49:42.050Z,34.67
2018-02-08T02:52:09.998Z,32.20
2018-02-08T02:54:38.090Z,29.37
2018-02-08T02:57:06.079Z,33.13
2018-02-08T02:59:34.134Z,32.65
2018-02-08T03:02:02.036Z,35.97
2018-02-08T03:04:30.073Z,33.17
2018-02-08T03:06:58.059Z,32.08
2018-02-08T03:09:26.077Z,31.05
2018-02-08T03:11:54.018Z,29.85
2018-02-08T03:14:21.950Z,35.53
2018-02-08T03:16:49.923Z,30.67
2018-02-08T03:19:17.877Z,37.67
2018-02-08T03:21:45.913Z,26.52
2018-02-08T03:24:13.901Z,32.70
2018-02-08T03:26:41.837Z,38.35
2018-02-08T03:29:10.250Z,32.78
2018-02-08T03:31:38.363Z,36.80
2018-02-08T03:34:06.250Z,40.40
2018-02-08T03:36:34.229Z,29.65
2018-02-08T03:39:02.439Z,31.87
2018-02-08T03:41:30.358Z,30.98
2018-02-08T03:43:58.798Z,30.80
2018-02-08T03:46:26.779Z,26.65
2018-02-08T03:48:54.781Z,29.27
2018-02-08T03:51:22.751Z,29.67
2018-02-08T03:53:50.737Z,27.05
2018-02-08T03:56:18.714Z,30.95
2018-02-08T03:58:46.760Z,34.78
2018-02-08T04:01:14.754Z,31.58
2018-02-08T04:03:42.707Z,29.58
2018-02-08T04:06:10.681Z,33.65
2018-02-08T04:08:38.634Z,28.55
2018-02-08T04:11:06.644Z,29.23
2018-02-08T04:13:34.602Z,37.38
2018-02-08T04:16:02.534Z,31.80
2018-02-08T04:18:30.650Z,36.72
2018-02-08T04:20:58.618Z,37.15
2018-02-08T04:23:26.586Z,28.48
2018-02-08T04:25:55.025Z,33.22
2018-02-08T04:28:22.994Z,29.95
2018-02-08T04:30:51.036Z,33.30
2018-02-08T04:33:18.994Z,33.05
2018-02-08T04:35:46.984Z,31.65
2018-02-08T04:38:17.864Z,34.70
2018-02-08T04:40:57.823Z,38.50
2018-02-08T04:43:37.704Z,33.85
2018-02-08T04:46:17.364Z,34.22
2018-02-08T04:48:45.341Z,36.47
2018-02-08T04:51:13.310Z,41.47
2018-02-08T04:53:41.283Z,36.05
2018-02-08T04:56:09.254Z,36.00
2018-02-08T04:58:37.196Z,39.13
2018-02-08T05:01:05.155Z,38.70
2018-02-08T05:03:33.126Z,32.67
2018-02-08T05:06:01.105Z,38.85
2018-02-08T05:08:29.109Z,31.75
2018-02-08T05:10:57.031Z,36.40
2018-02-08T05:13:25.079Z,32.38
2018-02-08T05:15:53.004Z,30.15
2018-02-08T05:18:20.985Z,29.65
2018-02-08T05:20:48.953Z,34.42
2018-02-08T05:23:16.921Z,29.77
2018-02-08T05:25:44.890Z,30.52
2018-02-08T05:28:12.865Z,30.12
2018-02-08T05:30:40.817Z,30.80
2018-02-08T05:33:08.785Z,39.97
2018-02-08T05:35:36.754Z,30.92
2018-02-08T05:38:04.746Z,33.90
2018-02-08T05:40:32.746Z,33.00
2018-02-08T05:43:00.813Z,34.53
2018-02-08T05:45:28.912Z,34.78
2018-02-08T05:47:56.852Z,30.48
2018-02-08T05:50:24.853Z,37.05
2018-02-08T05:52:52.775Z,33.33
2018-02-08T05:55:20.777Z,38.53
2018-02-08T05:57:48.745Z,39.25
2018-02-08T06:00:16.772Z,40.47
2018-02-08T06:02:44.718Z,37.65
2018-02-08T06:05:12.767Z,32.28
2018-02-08T06:07:40.761Z,37.92
2018-02-08T06:10:08.734Z,36.85
2018-02-08T06:12:36.753Z,30.42
2018-02-08T06:15:04.699Z,39.70
2018-02-08T06:17:32.698Z,34.05
2018-02-08T06:20:00.663Z,29.15
2018-02-08T06:22:28.670Z,33.83
2018-02-08T06:24:56.678Z,34.80
2018-02-08T06:27:24.721Z,34.78
2018-02-08T06:29:52.820Z,29.58
2018-02-08T06:32:21.405Z,30.58
2018-02-08T06:34:49.407Z,39.15
2018-02-08T06:37:17.360Z,29.98
2018-02-08T06:39:45.329Z,30.12
2018-02-08T06:42:13.300Z,32.15
2018-02-08T06:44:41.272Z,29.23
2018-02-08T06:47:09.221Z,35.45
2018-02-08T06:49:37.429Z,33.50
2018-02-08T06:52:05.460Z,29.87
2018-02-08T06:54:33.434Z,37.58
2018-02-08T06:57:01.431Z,35.30
2018-02-08T06:59:29.447Z,29.37
2018-02-08T07:01:57.462Z,33.45
2018-02-08T07:04:25.611Z,35.88
2018-02-08T07:06:53.566Z,33.90
2018-02-08T07:09:21.563Z,34.75
2018-02-08T07:11:49.601Z,34.60
2018-02-08T07:14:17.570Z,34.58
2018-02-08T07:16:45.585Z,34.35
2018-02-08T07:19:13.563Z,40.63
2018-02-08T07:21:41.573Z,35.65
2018-02-08T07:24:09.839Z,34.47
2018-02-08T07:26:38.796Z,37.90
2018-02-08T07:29:06.841Z,39.30
2018-02-08T07:31:34.873Z,41.92
2018-02-08T07:34:02.996Z,47.45
2018-02-08T07:36:31.035Z,35.40
2018-02-08T07:38:59.042Z,31.65
2018-02-08T07:41:27.133Z,43.40
2018-02-08T07:43:55.156Z,36.10
2018-02-08T07:46:23.209Z,40.88
2018-02-08T07:48:51.165Z,30.90
2018-02-08T07:51:19.165Z,36.90
2018-02-08T07:53:47.156Z,38.45
2018-02-08T07:56:15.153Z,34.45
2018-02-08T07:58:43.109Z,35.30
2018-02-08T08:01:11.081Z,36.15
2018-02-08T08:03:39.167Z,35.45
2018-02-08T08:06:07.144Z,38.10
2018-02-08T08:08:35.092Z,34.60
2018-02-08T08:11:03.313Z,38.95
2018-02-08T08:13:31.418Z,37.10
2018-02-08T08:15:59.352Z,34.50
2018-02-08T08:18:27.321Z,35.45
2018-02-08T08:20:55.364Z,34.00
2018-02-08T08:23:23.375Z,34.95
2018-02-08T08:25:51.400Z,35.33
2018-02-08T08:28:19.480Z,34.85
2018-02-08T08:30:47.879Z,32.65
2018-02-08T08:33:16.243Z,37.63
2018-02-08T08:35:44.912Z,32.55
2018-02-08T08:38:13.010Z,34.38
2018-02-08T08:40:41.505Z,32.88
2018-02-08T08:43:09.817Z,30.85
2018-02-08T08:45:37.921Z,31.08
2018-02-08T08:48:06.157Z,34.78
2018-02-08T08:50:34.156Z,34.22
2018-02-08T08:53:02.963Z,33.55
2018-02-08T08:55:31.182Z,29.63
2018-02-08T08:58:00.913Z,28.65
2018-02-08T09:00:29.020Z,30.77
2018-02-08T09:02:57.007Z,29.65
2018-02-08T09:05:26.276Z,30.95
2018-02-08T09:07:55.194Z,31.15
2018-02-08T09:10:23.820Z,30.00
2018-02-08T09:12:51.837Z,34.30
2018-02-08T09:15:19.804Z,28.92
2018-02-08T09:17:48.190Z,35.70
2018-02-08T09:20:16.252Z,32.35
2018-02-08T09:22:44.988Z,28.60
2018-02-08T09:25:13.172Z,34.00
2018-02-08T09:27:41.154Z,33.45
2018-02-08T09:30:09.194Z,33.33
2018-02-08T09:32:37.393Z,30.05
2018-02-08T09:35:05.483Z,34.50
2018-02-08T09:37:33.617Z,26.17
2018-02-08T09:40:01.799Z,29.42
2018-02-08T09:42:29.931Z,31.30
2018-02-08T09:44:57.996Z,27.87
2018-02-08T09:47:26.051Z,34.17
2018-02-08T09:49:54.196Z,31.58
2018-02-08T09:52:22.327Z,30.15
2018-02-08T09:54:50.479Z,29.10
2018-02-08T09:57:18.486Z,29.50
2018-02-08T09:59:46.536Z,32.42
2018-02-08T10:02:14.990Z,30.80
2018-02-08T10:04:43.074Z,33.05
2018-02-08T10:07:11.098Z,27.73
2018-02-08T10:09:39.081Z,25.75
2018-02-08T10:12:07.491Z,30.05
2018-02-08T10:14:35.815Z,26.12
2018-02-08T10:17:03.877Z,31.70
2018-02-08T10:19:31.921Z,28.00
2018-02-08T10:22:00.922Z,30.27
2018-02-08T10:24:29.383Z,28.27
2018-02-08T10:26:57.671Z,30.63
2018-02-08T10:29:25.784Z,26.20
2018-02-08T10:31:53.929Z,28.85
2018-02-08T10:34:22.171Z,29.25
2018-02-08T10:36:50.287Z,32.77
2018-02-08T10:39:18.404Z,24.50
2018-02-08T10:41:46.516Z,25.93
2018-02-08T10:44:14.556Z,28.10
2018-02-08T10:46:42.731Z,24.07
2018-02-08T10:49:10.803Z,27.80
2018-02-08T10:51:38.861Z,25.20
2018-02-08T10:54:06.889Z,24.80
2018-02-08T10:56:35.114Z,25.93
2018-02-08T10:59:03.097Z,25.20
2018-02-08T11:01:31.108Z,26.00
2018-02-08T11:03:59.073Z,26.50
2018-02-08T11:06:27.033Z,23.80
2018-02-08T11:08:54.979Z,23.57
2018-02-08T11:11:22.979Z,22.83
2018-02-08T11:13:51.004Z,22.00
2018-02-08T11:16:18.965Z,21.37
2018-02-08T11:18:46.903Z,21.60
2018-02-08T11:21:14.872Z,21.90
2018-02-08T11:23:42.844Z,25.63
2018-02-08T11:26:10.780Z,24.73
2018-02-08T11:28:38.914Z,28.73
2018-02-08T11:31:06.920Z,27.00
2018-02-08T11:33:34.925Z,24.50
2018-02-08T11:36:02.941Z,27.07
2018-02-08T11:38:30.905Z,24.80
2018-02-08T11:40:58.842Z,27.03
2018-02-08T11:43:26.945Z,21.60
2018-02-08T11:45:54.915Z,27.60
2018-02-08T11:48:23.811Z,27.13
2018-02-08T11:50:51.758Z,24.50
2018-02-08T11:53:19.861Z,26.90
2018-02-08T11:55:47.846Z,23.10
2018-02-08T11:58:15.856Z,26.33
2018-02-08T12:00:43.905Z,29.53
2018-02-08T12:03:12.006Z,25.20
2018-02-08T12:05:39.945Z,27.13
2018-02-08T12:08:07.950Z,23.20
2018-02-08T12:10:35.978Z,24.50
2018-02-08T12:13:04.097Z,23.10
2018-02-08T12:15:32.502Z,22.73
2018-02-08T12:18:00.741Z,24.53
2018-02-08T12:20:30.185Z,25.60
2018-02-08T12:22:58.250Z,23.73
2018-02-08T12:25:26.536Z,23.50
2018-02-08T12:27:56.176Z,23.20
2018-02-08T12:30:24.213Z,25.03
2018-02-08T12:32:53.362Z,21.20
2018-02-08T12:35:21.456Z,26.83
2018-02-08T12:37:49.608Z,29.30
2018-02-08T12:40:17.656Z,22.27
2018-02-08T12:42:45.655Z,26.40
2018-02-08T12:45:13.818Z,26.10
2018-02-08T12:47:41.952Z,23.23
2018-02-08T12:50:09.889Z,26.03
2018-02-08T12:52:37.940Z,24.17
2018-02-08T12:55:05.931Z,23.87
2018-02-08T12:57:33.930Z,26.57
2018-02-08T13:00:01.915Z,22.07
2018-02-08T13:02:30.015Z,23.00
2018-02-08T13:04:57.999Z,20.50
2018-02-08T13:07:26.262Z,23.63
2018-02-08T13:09:54.452Z,25.43
2018-02-08T13:12:22.496Z,25.47
2018-02-08T13:14:50.535Z,25.50
2018-02-08T13:17:18.656Z,22.70
2018-02-08T13:19:46.895Z,21.93
2018-02-08T13:22:16.399Z,22.00
2018-02-08T13:24:44.334Z,21.03
2018-02-08T13:27:12.354Z,20.80
2018-02-08T13:29:40.297Z,20.47
2018-02-08T13:32:09.195Z,20.93
2018-02-08T13:34:38.419Z,32.13
2018-02-08T13:37:06.512Z,29.30
2018-02-08T13:39:37.241Z,28.70
2018-02-08T13:42:23.106Z,19.40
2018-02-08T13:44:51.259Z,22.60
2018-02-08T13:47:24.938Z,23.33
2018-02-08T13:50:01.408Z,25.63
2018-02-08T13:52:35.095Z,20.33
2018-02-08T13:55:06.808Z,22.70
2018-02-08T13:57:37.338Z,20.07
2018-02-08T14:00:10.959Z,19.80
2018-02-08T14:02:39.010Z,18.50
2018-02-08T14:05:06.965Z,21.33
2018-02-08T14:07:36.635Z,19.40
2018-02-08T14:10:04.967Z,19.13
2018-02-08T14:12:33.102Z,20.80
2018-02-08T14:15:01.070Z,18.47
2018-02-08T14:17:29.078Z,21.73
2018-02-08T14:19:57.178Z,19.03
2018-02-08T14:22:25.152Z,20.90
2018-02-08T14:24:53.239Z,19.33
2018-02-08T14:27:22.239Z,18.87
2018-02-08T14:29:50.251Z,18.95
2018-02-08T14:32:18.335Z,46.60
2018-02-08T14:34:46.302Z,29.67
2018-02-08T14:37:14.448Z,20.43
2018-02-08T14:39:42.489Z,17.73
2018-02-08T14:42:10.503Z,21.60
2018-02-08T14:44:38.455Z,19.10
2018-02-08T14:47:06.728Z,49.87
2018-02-08T14:49:34.808Z,20.70
2018-02-08T14:52:02.742Z,21.37
2018-02-08T14:54:30.754Z,19.13
2018-02-08T14:56:59.232Z,21.40
2018-02-08T14:59:27.222Z,18.00
2018-02-08T15:01:55.192Z,17.43
2018-02-08T15:04:23.213Z,15.40
2018-02-08T15:06:51.296Z,19.30
2018-02-08T15:09:19.487Z,17.67
2018-02-08T15:11:47.596Z,25.70
2018-02-08T15:14:15.692Z,18.67
2018-02-08T15:16:43.663Z,20.07
2018-02-08T15:19:11.738Z,20.63
2018-02-08T15:21:39.927Z,26.25
2018-02-08T15:24:13.828Z,18.03
2018-02-08T15:26:42.231Z,19.40
2018-02-08T15:29:10.332Z,23.93
2018-02-08T15:31:38.471Z,20.27
2018-02-08T15:34:06.512Z,17.87
2018-02-08T15:36:34.556Z,16.67
2018-02-08T15:39:02.676Z,15.13
2018-02-08T15:41:30.699Z,16.37
2018-02-08T15:43:58.781Z,15.77
2018-02-08T15:46:26.733Z,16.60
2018-02-08T15:48:54.791Z,14.97
2018-02-08T15:51:22.818Z,18.70
2018-02-08T15:53:50.797Z,16.20
2018-02-08T15:56:18.858Z,16.67
2018-02-08T15:58:46.897Z,17.03
2018-02-08T16:01:14.983Z,20.90
2018-02-08T16:03:42.979Z,18.30
2018-02-08T16:06:11.857Z,19.03
2018-02-08T16:08:40.827Z,19.00
2018-02-08T16:11:08.873Z,17.95
2018-02-08T16:13:37.000Z,21.80
2018-02-08T16:16:05.143Z,22.50
2018-02-08T16:18:34.058Z,20.45
2018-02-08T16:21:02.032Z,19.53
2018-02-08T16:23:30.075Z,21.80
2018-02-08T16:25:58.467Z,23.67
2018-02-08T16:28:26.425Z,20.90
2018-02-08T16:30:54.394Z,18.67
2018-02-08T16:33:22.430Z,24.50
2018-02-08T16:35:50.462Z,22.57
2018-02-08T16:38:18.544Z,23.30
2018-02-08T16:40:46.517Z,20.30
2018-02-08T16:43:14.553Z,21.00
2018-02-08T16:45:42.600Z,22.02
2018-02-08T16:48:10.596Z,25.13
2018-02-08T16:50:38.566Z,24.50
2018-02-08T16:53:06.561Z,35.67
2018-02-08T16:55:34.562Z,40.07
2018-02-08T16:58:02.578Z,58.90
2018-02-08T17:00:30.602Z,56.17
2018-02-08T17:02:58.586Z,47.90
2018-02-08T17:05:26.589Z,43.43
2018-02-08T17:07:54.625Z,45.60
2018-02-08T17:10:22.691Z,41.08
2018-02-08T17:12:50.642Z,35.20
2018-02-08T17:15:18.654Z,26.95
2018-02-08T17:17:46.600Z,33.30
2018-02-08T17:20:14.636Z,26.55
2018-02-08T17:22:42.579Z,31.65
2018-02-08T17:25:10.547Z,29.00
2018-02-08T17:27:38.883Z,28.55
2018-02-08T17:30:06.882Z,30.75
2018-02-08T17:32:34.855Z,24.50
2018-02-08T17:35:02.855Z,28.30
2018-02-08T17:37:30.822Z,29.60
2018-02-08T17:39:58.858Z,30.95
2018-02-08T17:42:26.811Z,26.27
2018-02-08T17:44:55.260Z,29.63
2018-02-08T17:47:23.268Z,24.40
2018-02-08T17:49:51.231Z,28.47
2018-02-08T17:52:19.209Z,32.88
2018-02-08T17:54:47.865Z,24.80
2018-02-08T17:57:15.882Z,27.37
2018-02-08T17:59:43.894Z,28.27
2018-02-08T18:02:11.927Z,28.13
2018-02-08T18:04:39.922Z,40.17
2018-02-08T18:07:08.027Z,28.20
2018-02-08T18:09:35.996Z,27.30
2018-02-08T18:12:03.958Z,32.83
2018-02-08T18:14:32.030Z,27.20
2018-02-08T18:16:59.985Z,27.87
2018-02-08T18:19:27.966Z,24.42
2018-02-08T18:21:55.979Z,27.33
2018-02-08T18:24:23.944Z,27.55
2018-02-08T18:26:51.957Z,25.05
2018-02-08T18:29:20.055Z,26.10
2018-02-08T18:31:48.028Z,33.47
2018-02-08T18:34:16.144Z,29.65
2018-02-08T18:36:44.160Z,26.27
2018-02-08T18:39:12.229Z,29.80
2018-02-08T18:41:40.244Z,34.85
2018-02-08T18:44:08.195Z,33.90
2018-02-08T18:46:36.153Z,31.65
2018-02-08T18:49:04.808Z,27.33
2018-02-08T18:51:33.081Z,28.12
2018-02-08T18:54:01.161Z,31.15
2018-02-08T18:56:29.302Z,25.42
2018-02-08T18:58:57.358Z,35.42
2018-02-08T19:01:25.398Z,28.98
2018-02-08T19:03:53.470Z,31.62
2018-02-08T19:06:21.398Z,34.15
2018-02-08T19:08:49.431Z,27.20
2018-02-08T19:11:17.420Z,31.70
2018-02-08T19:13:45.421Z,38.60
2018-02-08T19:16:13.564Z,35.83
2018-02-08T19:18:41.504Z,35.95
2018-02-08T19:21:09.505Z,33.65
2018-02-08T19:23:37.708Z,32.65
2018-02-08T19:26:05.696Z,33.95
2018-02-08T19:28:33.771Z,31.67
2018-02-08T19:31:02.109Z,31.42
2018-02-08T19:33:30.057Z,33.17
2018-02-08T19:35:58.128Z,31.12
2018-02-08T19:38:26.362Z,28.50
2018-02-08T19:40:54.402Z,31.85
2018-02-08T19:43:22.402Z,27.45
2018-02-08T19:45:50.536Z,28.08
2018-02-08T19:48:18.672Z,30.77
2018-02-08T19:50:46.869Z,33.42
2018-02-08T19:53:14.903Z,31.73
2018-02-08T19:55:42.905Z,36.92
2018-02-08T19:58:10.831Z,32.05
2018-02-08T20:00:38.807Z,35.90
2018-02-08T20:03:06.739Z,38.33
2018-02-08T20:05:34.707Z,35.30
2018-02-08T20:08:02.688Z,32.30
2018-02-08T20:10:30.685Z,36.17
2018-02-08T20:12:58.642Z,37.92
2018-02-08T20:15:30.206Z,33.83
2018-02-08T20:17:58.175Z,39.42
2018-02-08T20:20:26.142Z,37.38
2018-02-08T20:22:54.129Z,40.35
2018-02-08T20:25:36.957Z,35.83
2018-02-08T20:28:05.099Z,41.97
2018-02-08T20:30:33.072Z,47.53
2018-02-08T20:33:01.013Z,37.78
2018-02-08T20:35:28.979Z,39.45
2018-02-08T20:37:56.993Z,43.65
2018-02-08T20:40:25.554Z,44.17
2018-02-08T20:42:59.113Z,42.85
2018-02-08T20:45:27.060Z,44.88
2018-02-08T20:47:55.194Z,43.90
2018-02-08T20:50:23.330Z,41.67
2018-02-08T20:52:51.414Z,41.78
2018-02-08T20:55:19.534Z,40.53
2018-02-08T20:57:47.550Z,43.78
2018-02-08T21:00:15.530Z,46.17
2018-02-08T21:02:43.538Z,39.97
2018-02-08T21:05:11.617Z,40.60
2018-02-08T21:07:39.778Z,40.08
2018-02-08T21:10:07.774Z,42.17
2018-02-08T21:12:35.735Z,41.55
2018-02-08T21:15:03.711Z,41.50
2018-02-08T21:17:31.848Z,45.60
2018-02-08T21:19:59.879Z,41.13
2018-02-08T21:22:27.818Z,43.33
2018-02-08T21:24:55.884Z,45.00
2018-02-08T21:27:23.875Z,41.10
2018-02-08T21:29:51.858Z,40.33
2018-02-08T21:32:19.901Z,38.22
2018-02-08T21:34:47.869Z,35.00
2018-02-08T21:37:15.938Z,44.63
2018-02-08T21:39:43.913Z,45.83
2018-02-08T21:42:12.307Z,38.88
2018-02-08T21:44:40.306Z,45.60
2018-02-08T21:47:08.233Z,39.20
2018-02-08T21:49:36.309Z,39.65
2018-02-08T21:52:04.384Z,45.45
2018-02-08T21:54:33.271Z,44.72
2018-02-08T21:57:01.248Z,47.53
2018-02-08T21:59:29.556Z,39.85
2018-02-08T22:01:57.533Z,39.15
2018-02-08T22:04:25.771Z,50.42
2018-02-08T22:06:53.737Z,54.10
2018-02-08T22:09:22.350Z,61.37
2018-02-08T22:11:50.537Z,47.45
2018-02-08T22:14:18.462Z,48.70
2018-02-08T22:16:46.436Z,45.12
2018-02-08T22:19:14.477Z,41.20
2018-02-08T22:21:42.423Z,44.28
2018-02-08T22:24:11.196Z,39.38
2018-02-08T22:26:39.147Z,38.42
2018-02-08T22:29:07.230Z,45.97
2018-02-08T22:31:35.277Z,40.55
2018-02-08T22:34:03.619Z,55.42
2018-02-08T22:36:31.658Z,110.40
2018-02-08T22:38:59.896Z,46.70
2018-02-08T22:41:27.932Z,41.33
2018-02-08T22:43:55.888Z,45.20
2018-02-08T22:46:24.843Z,40.72
2018-02-08T22:48:52.836Z,41.08
2018-02-08T22:51:21.605Z,47.65
2018-02-08T22:53:50.264Z,39.08
2018-02-08T22:56:18.313Z,46.70
2018-02-08T22:58:46.557Z,42.75
2018-02-08T23:01:14.889Z,41.90
2018-02-08T23:03:42.973Z,44.55
2018-02-08T23:06:11.910Z,44.42
2018-02-08T23:08:40.016Z,41.40
2018-02-08T23:11:08.167Z,42.25
2018-02-08T23:13:36.123Z,45.80
2018-02-08T23:16:05.625Z,41.28
2018-02-08T23:18:33.649Z,46.13
2018-02-08T23:21:01.754Z,44.60
2018-02-08T23:23:30.456Z,39.60
2018-02-08T23:25:58.540Z,48.53
2018-02-08T23:28:26.647Z,43.72
2018-02-08T23:30:54.597Z,45.10
2018-02-08T23:33:22.565Z,45.83
2018-02-08T23:35:50.577Z,41.25
2018-02-08T23:38:19.393Z,48.33
2018-02-08T23:40:47.374Z,46.75
2018-02-08T23:43:15.330Z,40.88
2018-02-08T23:45:43.273Z,46.25
2018-02-08T23:48:11.967Z,43.50
2018-02-08T23:50:40.186Z,38.58
2018-02-08T23:53:08.129Z,46.67
2018-02-08T23:55:36.053Z,42.00
2018-02-08T23:58:04.110Z,48.95
